createdAt,value
2019-04-05T00:00:18.284Z,100065.50
2019-04-05T00:02:47.006Z,100063.34
2019-04-05T00:05:16.849Z,100059.70
2019-04-05T00:07:45.836Z,100061.66
2019-04-05T00:10:15.487Z,100073.78
2019-04-05T00:12:44.486Z,100067.53
2019-04-05T00:15:15.906Z,100066.52
2019-04-05T00:17:44.026Z,100071.70
2019-04-05T00:20:13.203Z,100063.44
2019-04-05T00:22:42.109Z,100069.25
2019-04-05T00:25:11.092Z,100068.27
2019-04-05T00:27:40.292Z,100066.55
2019-04-05T00:30:09.900Z,100070.50
2019-04-05T00:32:39.202Z,100064.92
2019-04-05T00:35:08.222Z,100062.88
2019-04-05T00:37:37.186Z,100058.17
2019-04-05T00:40:06.775Z,100064.24
2019-04-05T00:42:35.688Z,100065.19
2019-04-05T00:45:05.190Z,100070.55
2019-04-05T00:47:33.835Z,100068.66
2019-04-05T00:50:03.175Z,100070.38
2019-04-05T00:52:31.899Z,100072.20
2019-04-05T00:55:00.627Z,100078.81
2019-04-05T00:57:29.544Z,100074.45
2019-04-05T00:59:59.088Z,100078.39
2019-04-05T01:02:28.454Z,100077.97
2019-04-05T01:04:57.086Z,100081.58
2019-04-05T01:07:25.787Z,100085.55
2019-04-05T01:09:55.135Z,100087.63
2019-04-05T01:12:25.349Z,100081.22
2019-04-05T01:14:55.537Z,100084.71
2019-04-05T01:17:25.460Z,100083.02
2019-04-05T01:19:55.877Z,100092.61
2019-04-05T01:22:27.233Z,100087.91
2019-04-05T01:24:56.573Z,100093.59
2019-04-05T01:27:25.439Z,100096.66
2019-04-05T01:29:54.152Z,100101.94
2019-04-05T01:32:23.134Z,100096.83
2019-04-05T01:34:51.852Z,100091.72
2019-04-05T01:37:20.494Z,100100.02
2019-04-05T01:39:49.501Z,100102.67
2019-04-05T01:42:18.917Z,100105.31
2019-04-05T01:44:47.639Z,100112.78
2019-04-05T01:47:16.896Z,100103.25
2019-04-05T01:49:45.783Z,100110.69
2019-04-05T01:52:14.888Z,100109.91
2019-04-05T01:54:43.772Z,100108.16
2019-04-05T01:57:12.451Z,100105.13
2019-04-05T01:59:41.031Z,100113.03
2019-04-05T02:02:10.036Z,100110.88
2019-04-05T02:04:39.046Z,100111.28
2019-04-05T02:07:07.671Z,100112.60
2019-04-05T02:09:37.018Z,100114.77
2019-04-05T02:12:06.244Z,100117.33
2019-04-05T02:14:35.215Z,100110.84
2019-04-05T02:17:04.314Z,100109.09
2019-04-05T02:19:33.321Z,100112.52
2019-04-05T02:22:02.299Z,100111.61
2019-04-05T02:24:31.474Z,100119.40
2019-04-05T02:27:01.003Z,100117.72
2019-04-05T02:29:30.298Z,100124.23
2019-04-05T02:31:59.013Z,100116.05
2019-04-05T02:34:27.658Z,100122.14
2019-04-05T02:36:56.285Z,100128.70
2019-04-05T02:39:25.674Z,100124.87
2019-04-05T02:41:54.969Z,100125.30
2019-04-05T02:44:24.296Z,100136.17
2019-04-05T02:46:54.326Z,100137.02
2019-04-05T02:49:24.809Z,100135.78
2019-04-05T02:51:54.941Z,100140.50
2019-04-05T02:54:23.638Z,100148.87
2019-04-05T02:56:52.815Z,100148.94
2019-04-05T02:59:21.814Z,100150.31
2019-04-05T03:01:51.317Z,100149.89
2019-04-05T03:04:19.979Z,100144.73
2019-04-05T03:06:50.060Z,100150.73
2019-04-05T03:09:18.784Z,100146.45
2019-04-05T03:11:48.320Z,100154.77
2019-04-05T03:14:17.614Z,100150.08
2019-04-05T03:16:48.145Z,100159.17
2019-04-05T03:19:20.928Z,100152.70
2019-04-05T03:21:53.792Z,100152.71
2019-04-05T03:24:25.713Z,100158.79
2019-04-05T03:27:01.177Z,100153.99
2019-04-05T03:29:30.347Z,100159.21
2019-04-05T03:32:00.043Z,100165.70
2019-04-05T03:34:29.021Z,100167.45
2019-04-05T03:36:58.018Z,100168.78
2019-04-05T03:39:27.249Z,100177.88
2019-04-05T03:41:56.209Z,100178.77
2019-04-05T03:44:25.211Z,100176.63
2019-04-05T03:46:57.714Z,100183.59
2019-04-05T03:49:26.058Z,100177.52
2019-04-05T03:51:55.723Z,100179.72
2019-04-05T03:54:24.441Z,100178.02
2019-04-05T03:56:53.455Z,100183.28
2019-04-05T03:59:22.093Z,100188.92
2019-04-05T04:01:50.819Z,100188.55
2019-04-05T04:04:19.819Z,100194.58
2019-04-05T04:06:48.812Z,100197.62
2019-04-05T04:09:17.642Z,100199.30
2019-04-05T04:11:46.592Z,100197.58
2019-04-05T04:14:15.893Z,100202.77
2019-04-05T04:16:45.145Z,100204.55
2019-04-05T04:19:13.823Z,100207.59
2019-04-05T04:21:50.069Z,100209.83
2019-04-05T04:24:19.301Z,100206.38
2019-04-05T04:26:48.448Z,100214.64
2019-04-05T04:29:17.639Z,100215.94
2019-04-05T04:31:46.364Z,100219.00
2019-04-05T04:34:15.760Z,100213.84
2019-04-05T04:36:44.827Z,100212.55
2019-04-05T04:39:13.450Z,100214.67
2019-04-05T04:41:42.127Z,100217.69
2019-04-05T04:44:11.747Z,100220.30
2019-04-05T04:46:41.038Z,100221.97
2019-04-05T04:49:10.201Z,100221.58
2019-04-05T04:51:39.295Z,100218.55
2019-04-05T04:54:08.286Z,100213.41
2019-04-05T04:56:36.994Z,100211.25
2019-04-05T04:59:05.909Z,100219.44
2019-04-05T05:01:34.634Z,100218.56
2019-04-05T05:04:03.726Z,100227.25
2019-04-05T05:06:32.976Z,100226.38
2019-04-05T05:09:02.516Z,100237.17
2019-04-05T05:11:31.857Z,100239.34
2019-04-05T05:14:00.529Z,100248.44
2019-04-05T05:16:29.866Z,100251.01
2019-04-05T05:18:58.940Z,100249.31
2019-04-05T05:21:27.561Z,100249.30
2019-04-05T05:23:56.621Z,100257.47
2019-04-05T05:26:25.677Z,100257.87
2019-04-05T05:28:55.129Z,100264.77
2019-04-05T05:31:24.624Z,100266.89
2019-04-05T05:33:53.927Z,100264.73
2019-04-05T05:36:22.925Z,100264.72
2019-04-05T05:38:51.650Z,100264.29
2019-04-05T05:41:20.704Z,100269.06
2019-04-05T05:43:50.005Z,100269.48
2019-04-05T05:46:19.306Z,100271.22
2019-04-05T05:48:48.305Z,100274.66
2019-04-05T05:51:17.909Z,100276.38
2019-04-05T05:53:46.991Z,100273.77
2019-04-05T05:56:16.021Z,100271.11
2019-04-05T05:58:44.621Z,100268.95
2019-04-05T06:01:13.269Z,100274.15
2019-04-05T06:03:41.932Z,100272.33
2019-04-05T06:06:10.540Z,100276.16
2019-04-05T06:08:39.432Z,100275.27
2019-04-05T06:11:08.095Z,100276.94
2019-04-05T06:13:37.318Z,100276.50
2019-04-05T06:16:06.412Z,100284.21
2019-04-05T06:18:35.322Z,100282.09
2019-04-05T06:21:04.029Z,100287.23
2019-04-05T06:23:34.255Z,100291.16
2019-04-05T06:26:03.620Z,100295.91
2019-04-05T06:28:32.663Z,100295.86
2019-04-05T06:31:01.753Z,100301.02
2019-04-05T06:33:31.943Z,100304.91
2019-04-05T06:36:01.157Z,100302.72
2019-04-05T06:38:30.326Z,100306.59
2019-04-05T06:40:59.186Z,100310.11
2019-04-05T06:43:28.110Z,100311.85
2019-04-05T06:45:56.857Z,100302.67
2019-04-05T06:48:28.980Z,100300.44
2019-04-05T06:50:56.420Z,100292.99
2019-04-05T06:53:25.416Z,100291.50
2019-04-05T06:55:54.737Z,100291.35
2019-04-05T06:58:28.994Z,100285.17
2019-04-05T07:00:57.405Z,100292.34
2019-04-05T07:03:25.085Z,100286.51
2019-04-05T07:05:53.978Z,100287.68
2019-04-05T07:08:23.069Z,100295.83
2019-04-05T07:10:51.725Z,100296.94
2019-04-05T07:13:20.953Z,100307.28
2019-04-05T07:15:50.297Z,100299.65
2019-04-05T07:18:31.543Z,100303.88
2019-04-05T07:20:49.876Z,100305.25
2019-04-05T07:23:18.768Z,100300.27
2019-04-05T07:25:47.760Z,100305.77
2019-04-05T07:28:16.957Z,100308.05
2019-04-05T07:30:45.951Z,100310.70
2019-04-05T07:33:14.661Z,100310.38
2019-04-05T07:35:43.535Z,100310.61
2019-04-05T07:38:12.189Z,100318.80
2019-04-05T07:40:41.106Z,100322.22
2019-04-05T07:43:09.731Z,100320.77
2019-04-05T07:45:38.392Z,100324.38
2019-04-05T07:48:07.474Z,100327.66
2019-04-05T07:50:36.436Z,100327.53
2019-04-05T07:53:05.460Z,100331.72
2019-04-05T07:55:34.353Z,100329.25
2019-04-05T07:58:03.246Z,100331.30
2019-04-05T08:00:48.418Z,100330.82
2019-04-05T08:03:17.615Z,100333.14
2019-04-05T08:05:47.201Z,100337.70
2019-04-05T08:08:24.478Z,100337.07
2019-04-05T08:10:53.821Z,100346.00
2019-04-05T08:13:24.448Z,100351.67
2019-04-05T08:15:53.165Z,100353.95
2019-04-05T08:18:21.838Z,100352.89
2019-04-05T08:20:50.713Z,100346.87
2019-04-05T08:23:19.386Z,100348.93
2019-04-05T08:25:48.289Z,100349.17
2019-04-05T08:28:17.180Z,100348.16
2019-04-05T08:30:45.932Z,100348.20
2019-04-05T08:33:14.556Z,100353.41
2019-04-05T08:35:43.166Z,100348.91
2019-04-05T08:38:11.842Z,100353.05
2019-04-05T08:40:40.563Z,100341.17
2019-04-05T08:43:09.189Z,100337.52
2019-04-05T08:45:38.127Z,100333.80
2019-04-05T08:48:06.842Z,100335.37
2019-04-05T08:50:35.465Z,100331.63
2019-04-05T08:53:04.463Z,100319.34
2019-04-05T08:55:33.448Z,100326.35
2019-04-05T08:58:02.647Z,100328.19
2019-04-05T09:00:31.584Z,100330.11
2019-04-05T09:03:00.532Z,100330.11
2019-04-05T09:05:29.427Z,100337.57
2019-04-05T09:07:58.725Z,100336.08
2019-04-05T09:10:27.731Z,100328.02
2019-04-05T09:12:56.628Z,100335.28
2019-04-05T09:15:25.603Z,100331.61
2019-04-05T09:17:54.600Z,100336.55
2019-04-05T09:20:23.591Z,100335.52
2019-04-05T09:22:52.890Z,100337.55
2019-04-05T09:25:21.890Z,100341.63
2019-04-05T09:27:51.085Z,100338.70
2019-04-05T09:30:19.762Z,100333.20
2019-04-05T09:32:49.078Z,100333.82
2019-04-05T09:35:17.997Z,100326.70
2019-04-05T09:37:46.960Z,100324.11
2019-04-05T09:40:15.873Z,100331.09
2019-04-05T09:42:44.511Z,100329.08
2019-04-05T09:45:13.236Z,100326.02
2019-04-05T09:47:42.520Z,100324.52
2019-04-05T09:50:11.721Z,100321.47
2019-04-05T09:52:40.378Z,100319.13
2019-04-05T09:55:09.404Z,100319.05
2019-04-05T09:57:38.701Z,100324.50
2019-04-05T10:00:11.680Z,100318.69
2019-04-05T10:02:40.682Z,100325.09
2019-04-05T10:05:09.403Z,100322.33
2019-04-05T10:07:48.759Z,100326.09
2019-04-05T10:10:09.407Z,100321.49
2019-04-05T10:12:38.403Z,100333.42
2019-04-05T10:15:07.597Z,100327.73
2019-04-05T10:17:36.795Z,100328.14
2019-04-05T10:20:06.712Z,100327.23
2019-04-05T10:22:35.601Z,100330.83
2019-04-05T10:25:04.696Z,100328.14
2019-04-05T10:27:33.691Z,100328.72
2019-04-05T10:30:02.389Z,100327.38
2019-04-05T10:32:30.994Z,100325.25
2019-04-05T10:34:59.624Z,100321.55
2019-04-05T10:37:28.273Z,100326.46
2019-04-05T10:39:57.815Z,100335.70
2019-04-05T10:42:33.089Z,100327.13
2019-04-05T10:45:01.818Z,100328.23
2019-04-05T10:47:30.518Z,100320.05
2019-04-05T10:50:03.326Z,100314.72
2019-04-05T10:52:30.495Z,100321.03
2019-04-05T10:54:59.431Z,100322.91
2019-04-05T10:57:28.784Z,100312.75
2019-04-05T10:59:57.808Z,100324.53
2019-04-05T11:02:26.432Z,100322.80
2019-04-05T11:04:55.664Z,100327.34
2019-04-05T11:07:24.342Z,100331.86
2019-04-05T11:09:53.559Z,100324.79
2019-04-05T11:12:22.755Z,100324.71
2019-04-05T11:14:51.744Z,100325.67
2019-04-05T11:17:20.372Z,100328.17
2019-04-05T11:19:49.027Z,100323.95
2019-04-05T11:22:20.086Z,100322.89
2019-04-05T11:24:48.111Z,100327.91
2019-04-05T11:27:17.319Z,100326.81
2019-04-05T11:29:46.218Z,100320.20
2019-04-05T11:32:15.211Z,100328.41
2019-04-05T11:34:44.221Z,100327.73
2019-04-05T11:37:13.209Z,100329.63
2019-04-05T11:39:42.279Z,100324.38
2019-04-05T11:42:11.296Z,100331.70
2019-04-05T11:44:41.816Z,100322.60
2019-04-05T11:47:10.811Z,100322.70
2019-04-05T11:49:41.045Z,100337.66
2019-04-05T11:52:09.708Z,100334.25
2019-04-05T11:54:38.698Z,100328.83
2019-04-05T11:57:07.610Z,100331.23
2019-04-05T11:59:36.291Z,100331.41
2019-04-05T12:02:24.439Z,100334.67
2019-04-05T12:04:54.396Z,100340.81
2019-04-05T12:07:26.256Z,100334.61
2019-04-05T12:09:53.975Z,100334.66
2019-04-05T12:12:25.496Z,100334.98
2019-04-05T12:14:53.412Z,100331.99
2019-04-05T12:17:22.361Z,100335.72
2019-04-05T12:19:50.991Z,100330.94
2019-04-05T12:22:20.187Z,100340.83
2019-04-05T12:24:48.931Z,100337.77
2019-04-05T12:27:20.595Z,100324.84
2019-04-05T12:29:48.691Z,100325.80
2019-04-05T12:32:18.992Z,100328.36
2019-04-05T12:34:49.493Z,100325.47
2019-04-05T12:37:21.832Z,100335.61
2019-04-05T12:39:49.887Z,100333.02
2019-04-05T12:42:18.547Z,100331.64
2019-04-05T12:44:47.162Z,100338.56
2019-04-05T12:47:16.299Z,100332.10
2019-04-05T12:49:45.502Z,100337.97
2019-04-05T12:52:22.611Z,100338.48
2019-04-05T12:54:45.896Z,100337.43
2019-04-05T12:57:15.197Z,100333.81
2019-04-05T12:59:44.091Z,100336.12
2019-04-05T13:02:15.489Z,100335.89
2019-04-05T13:04:43.716Z,100334.20
2019-04-05T13:07:12.700Z,100328.83
2019-04-05T13:09:41.370Z,100323.05
2019-04-05T13:12:10.597Z,100316.51
2019-04-05T13:14:39.488Z,100320.34
2019-04-05T13:17:08.690Z,100318.84
2019-04-05T13:19:37.988Z,100327.75
2019-04-05T13:22:06.745Z,100324.87
2019-04-05T13:24:35.353Z,100324.41
2019-04-05T13:27:04.179Z,100322.59
2019-04-05T13:29:33.217Z,100317.99
2019-04-05T13:32:03.351Z,100322.02
2019-04-05T13:34:35.130Z,100319.27
2019-04-05T13:37:04.120Z,100321.20
2019-04-05T13:39:33.007Z,100320.44
2019-04-05T13:42:02.486Z,100325.59
2019-04-05T13:44:31.940Z,100333.56
2019-04-05T13:47:01.422Z,100325.61
2019-04-05T13:49:30.735Z,100333.65
2019-04-05T13:51:59.643Z,100329.76
2019-04-05T13:54:29.222Z,100331.75
2019-04-05T13:56:57.861Z,100332.23
2019-04-05T13:59:26.454Z,100332.82
2019-04-05T14:02:05.645Z,100329.29
2019-04-05T14:04:26.326Z,100330.11
2019-04-05T14:06:55.333Z,100323.39
2019-04-05T14:09:23.976Z,100331.28
2019-04-05T14:11:52.903Z,100331.58
2019-04-05T14:14:21.500Z,100332.84
2019-04-05T14:16:50.602Z,100333.15
2019-04-05T14:19:19.783Z,100337.59
2019-04-05T14:21:52.803Z,100333.05
2019-04-05T14:24:21.482Z,100336.92
2019-04-05T14:26:50.115Z,100339.23
2019-04-05T14:29:19.100Z,100336.99
2019-04-05T14:31:47.989Z,100337.18
2019-04-05T14:34:17.219Z,100341.75
2019-04-05T14:36:46.212Z,100338.33
2019-04-05T14:39:15.105Z,100335.75
2019-04-05T14:41:44.403Z,100335.53
2019-04-05T14:44:14.773Z,100336.14
2019-04-05T14:46:44.342Z,100333.05
2019-04-05T14:49:13.350Z,100332.35
2019-04-05T14:51:52.414Z,100332.88
2019-04-05T14:54:13.473Z,100334.12
2019-04-05T14:56:42.672Z,100329.80
2019-04-05T14:59:11.330Z,100329.42
2019-04-05T15:01:40.246Z,100330.11
2019-04-05T15:04:11.815Z,100330.03
2019-04-05T15:06:39.668Z,100328.48
2019-04-05T15:09:08.300Z,100332.73
2019-04-05T15:11:37.384Z,100329.38
2019-04-05T15:14:06.130Z,100336.87
2019-04-05T15:16:34.908Z,100333.08
2019-04-05T15:19:03.834Z,100332.15
2019-04-05T15:21:34.708Z,100332.48
2019-04-05T15:24:03.443Z,100336.23
2019-04-05T15:26:32.430Z,100333.98
2019-04-05T15:29:01.339Z,100338.49
2019-04-05T15:31:30.321Z,100341.87
2019-04-05T15:34:01.748Z,100338.05
2019-04-05T15:36:31.577Z,100339.59
2019-04-05T15:39:01.961Z,100336.52
2019-04-05T15:41:31.424Z,100338.14
2019-04-05T15:44:00.082Z,100337.30
2019-04-05T15:46:29.004Z,100342.80
2019-04-05T15:48:57.660Z,100347.96
2019-04-05T15:51:26.351Z,100341.21
2019-04-05T15:53:55.265Z,100340.86
2019-04-05T15:56:24.561Z,100345.69
2019-04-05T15:58:53.762Z,100351.05
2019-04-05T16:01:22.401Z,100350.16
2019-04-05T16:03:51.042Z,100352.30
2019-04-05T16:06:19.681Z,100356.00
2019-04-05T16:08:48.714Z,100359.83
2019-04-05T16:11:17.423Z,100362.15
2019-04-05T16:13:46.053Z,100361.60
2019-04-05T16:16:14.976Z,100369.21
2019-04-05T16:18:43.638Z,100376.13
2019-04-05T16:21:12.554Z,100365.84
2019-04-05T16:23:41.228Z,100372.80
2019-04-05T16:26:09.964Z,100369.70
2019-04-05T16:28:41.037Z,100369.66
2019-04-05T16:31:09.653Z,100376.16
2019-04-05T16:33:38.299Z,100378.93
2019-04-05T16:36:06.932Z,100380.22
2019-04-05T16:38:35.918Z,100382.61
2019-04-05T16:41:04.619Z,100385.97
2019-04-05T16:43:33.603Z,100390.94
2019-04-05T16:46:02.491Z,100387.11
2019-04-05T16:48:31.391Z,100392.89
2019-04-05T16:51:00.291Z,100397.83
2019-04-05T16:53:29.370Z,100394.07
2019-04-05T16:55:58.013Z,100398.73
2019-04-05T16:58:26.676Z,100398.53
2019-04-05T17:00:58.707Z,100403.77
2019-04-05T17:03:27.369Z,100401.55
2019-04-05T17:05:56.287Z,100398.09
2019-04-05T17:08:24.898Z,100396.87
2019-04-05T17:10:53.532Z,100394.98
2019-04-05T17:13:22.814Z,100400.02
2019-04-05T17:15:51.738Z,100407.51
2019-04-05T17:18:20.392Z,100409.73
2019-04-05T17:20:49.324Z,100406.37
2019-04-05T17:23:18.325Z,100411.66
2019-04-05T17:25:47.209Z,100411.72
2019-04-05T17:28:16.207Z,100416.65
2019-04-05T17:30:44.842Z,100417.33
2019-04-05T17:33:14.089Z,100421.72
2019-04-05T17:35:43.328Z,100425.62
2019-04-05T17:38:13.414Z,100430.98
2019-04-05T17:40:43.631Z,100432.11
2019-04-05T17:43:12.626Z,100439.42
2019-04-05T17:45:41.428Z,100444.98
2019-04-05T17:48:10.074Z,100448.38
2019-04-05T17:50:38.995Z,100454.67
2019-04-05T17:53:12.751Z,100464.53
2019-04-05T17:55:38.724Z,100477.63
2019-04-05T17:58:07.791Z,100481.12
2019-04-05T18:00:37.252Z,100487.72
2019-04-05T18:03:05.969Z,100487.61
2019-04-05T18:05:34.875Z,100494.62
2019-04-05T18:08:03.788Z,100496.33
2019-04-05T18:10:32.683Z,100501.79
2019-04-05T18:13:01.574Z,100506.30
2019-04-05T18:15:30.568Z,100510.72
2019-04-05T18:17:59.869Z,100509.11
2019-04-05T18:20:28.510Z,100508.86
2019-04-05T18:22:57.436Z,100511.06
2019-04-05T18:25:26.342Z,100513.05
2019-04-05T18:27:55.240Z,100515.27
2019-04-05T18:30:23.863Z,100519.16
2019-04-05T18:32:53.114Z,100522.72
2019-04-05T18:35:22.009Z,100528.70
2019-04-05T18:37:50.617Z,100538.08
2019-04-05T18:40:19.287Z,100540.88
2019-04-05T18:42:47.918Z,100537.05
2019-04-05T18:45:16.872Z,100538.42
2019-04-05T18:47:45.533Z,100541.17
2019-04-05T18:50:14.845Z,100544.23
2019-04-05T18:52:43.501Z,100549.16
2019-04-05T18:55:12.194Z,100555.06
2019-04-05T18:57:41.133Z,100550.84
2019-04-05T19:00:10.209Z,100548.44
2019-04-05T19:02:38.843Z,100553.28
2019-04-05T19:05:07.779Z,100559.83
2019-04-05T19:07:36.778Z,100566.82
2019-04-05T19:10:06.381Z,100565.96
2019-04-05T19:12:35.630Z,100567.62
2019-04-05T19:15:04.646Z,100561.86
2019-04-05T19:17:33.266Z,100570.62
2019-04-05T19:20:02.457Z,100579.37
2019-04-05T19:22:31.348Z,100577.65
2019-04-05T19:25:00.341Z,100579.98
2019-04-05T19:27:29.270Z,100579.76
2019-04-05T19:29:58.432Z,100584.64
2019-04-05T19:50:02.610Z,100583.95
2019-04-05T19:52:31.564Z,100583.91
2019-04-05T19:55:00.200Z,100591.83
2019-04-05T19:57:29.464Z,100594.55
2019-04-05T19:59:58.263Z,100590.27
2019-04-05T20:02:27.230Z,100594.22
2019-04-05T20:04:55.849Z,100602.85
2019-04-05T20:07:24.495Z,100607.78
2019-04-05T20:09:54.110Z,100603.44
2019-04-05T20:12:22.747Z,100614.32
2019-04-05T20:14:52.002Z,100608.66
2019-04-05T20:17:20.986Z,100612.19
2019-04-05T20:19:49.853Z,100615.70
2019-04-05T20:22:18.776Z,100615.81
2019-04-05T20:24:47.421Z,100613.64
2019-04-05T20:27:16.658Z,100621.92
2019-04-05T20:29:46.464Z,100623.13
2019-04-05T20:32:15.123Z,100624.50
2019-04-05T20:34:43.781Z,100622.31
2019-04-05T20:37:12.425Z,100625.42
2019-04-05T20:39:41.730Z,100621.94
2019-04-05T20:42:10.623Z,100632.78
2019-04-05T20:44:39.619Z,100634.55
2019-04-05T20:47:08.256Z,100630.20
2019-04-05T20:49:36.893Z,100628.02
2019-04-05T20:52:05.877Z,100628.50
2019-04-05T20:54:35.120Z,100631.15
2019-04-05T20:57:03.785Z,100637.31
2019-04-05T20:59:32.961Z,100642.09
2019-04-05T21:02:01.635Z,100635.50
2019-04-05T21:04:30.644Z,100638.58
2019-04-05T21:06:59.635Z,100645.20
2019-04-05T21:09:29.045Z,100640.41
2019-04-05T21:11:58.009Z,100638.61
2019-04-05T21:14:27.240Z,100636.02
2019-04-05T21:16:56.121Z,100633.52
2019-04-05T21:19:25.012Z,100634.34
2019-04-05T21:21:54.016Z,100630.90
2019-04-05T21:24:23.514Z,100625.33
2019-04-05T21:26:52.127Z,100630.91
2019-04-05T21:29:21.091Z,100637.40
2019-04-05T21:31:50.186Z,100637.45
2019-04-05T21:34:19.076Z,100640.57
2019-04-05T21:36:47.976Z,100645.84
2019-04-05T21:39:16.863Z,100645.42
2019-04-05T21:41:45.725Z,100637.55
2019-04-05T21:44:14.955Z,100635.80
2019-04-05T21:46:43.951Z,100637.52
2019-04-05T21:49:13.146Z,100641.00
2019-04-05T21:51:41.769Z,100632.81
2019-04-05T21:54:10.431Z,100634.98
2019-04-05T21:56:39.066Z,100638.45
2019-04-05T21:59:08.301Z,100646.29
2019-04-05T22:01:37.434Z,100646.32
2019-04-05T22:04:06.389Z,100641.53
2019-04-05T22:06:35.268Z,100639.00
2019-04-05T22:09:07.820Z,100638.59
2019-04-05T22:11:36.471Z,100649.45
2019-04-05T22:14:05.193Z,100651.58
2019-04-05T22:16:33.857Z,100652.03
2019-04-05T22:19:02.810Z,100650.77
2019-04-05T22:21:31.705Z,100661.18
2019-04-05T22:24:00.697Z,100662.06
2019-04-05T22:26:29.319Z,100668.98
2019-04-05T22:28:58.265Z,100673.75
2019-04-05T22:31:27.572Z,100682.85
2019-04-05T22:33:56.218Z,100686.67
2019-04-05T22:36:25.735Z,100687.52
2019-04-05T22:38:54.658Z,100684.91
2019-04-05T22:41:23.858Z,100693.54
2019-04-05T22:43:52.749Z,100689.60
2019-04-05T22:46:21.679Z,100684.45
2019-04-05T22:48:50.942Z,100686.64
2019-04-05T22:51:19.835Z,100683.64
2019-04-05T22:53:48.758Z,100688.34
2019-04-05T22:56:17.731Z,100694.31
2019-04-05T22:58:46.628Z,100690.03
2019-04-05T23:01:15.285Z,100691.71
2019-04-05T23:03:43.892Z,100691.77
2019-04-05T23:06:13.193Z,100692.63
2019-04-05T23:08:41.797Z,100693.97
2019-04-05T23:11:10.761Z,100693.11
2019-04-05T23:13:40.063Z,100692.67
2019-04-05T23:16:08.802Z,100683.58
2019-04-05T23:18:37.736Z,100684.44
2019-04-05T23:21:06.820Z,100678.73
2019-04-05T23:23:35.717Z,100684.84
2019-04-05T23:26:04.720Z,100680.47
2019-04-05T23:28:33.763Z,100688.73
2019-04-05T23:31:02.706Z,100684.02
2019-04-05T23:33:31.599Z,100684.41
2019-04-05T23:36:00.227Z,100687.83
2019-04-05T23:38:29.639Z,100686.95
2019-04-05T23:40:58.577Z,100690.72
2019-04-05T23:43:27.211Z,100686.33
2019-04-05T23:45:56.470Z,100689.20
2019-04-05T23:48:25.459Z,100694.25
2019-04-05T23:50:54.767Z,100699.48
2019-04-05T23:53:23.968Z,100689.58
2019-04-05T23:55:52.574Z,100691.38
2019-04-05T23:58:21.220Z,100690.17
